Norrie, Wisconsin
Current Conditions -  °F | °C
As of 5:15 AM on Tuesday 21 Oct 2014 (Local Time) from KAIG Reporting Station
Overcast Overcast  
Wind Chill: 31°   Ceiling: 1700
Heat Index: 39°   Visibility: 10mi
Dew Point: 35°   Wind: 13mph
Humidity: 85%   Direction: 10°N
Pressure: 30.14"   Gusts: NA
Location:  44.9303°N, 89.2097°W
Report Text: KAIG 211015Z AUTO 01011KT 10SM OVC017 04/02 A3014 RMK AO2 T00380015
Loading
Personal Weather Stations






























Interactive Weather Map
Tropical Storm Tracking
New forecast layout! Learn more

10-Day Weather Forecast

Advertisements
Track Severe Weather on mobile